createdAt,value
2019-05-15T00:02:18.409Z,2.15
2019-05-15T00:04:49.224Z,1.52
2019-05-15T00:07:18.851Z,1.70
2019-05-15T00:09:49.135Z,2.30
2019-05-15T00:12:18.987Z,2.00
2019-05-15T00:14:49.108Z,2.08
2019-05-15T00:17:19.135Z,2.00
2019-05-15T00:19:48.727Z,1.60
2019-05-15T00:22:18.543Z,1.90
2019-05-15T00:24:48.871Z,1.82
2019-05-15T00:27:20.334Z,1.83
2019-05-15T00:29:50.781Z,1.50
2019-05-15T00:32:20.297Z,1.87
2019-05-15T00:34:49.580Z,1.90
2019-05-15T00:37:19.107Z,2.00
2019-05-15T00:39:48.712Z,1.90
2019-05-15T00:42:19.042Z,2.25
2019-05-15T00:44:49.325Z,2.10
2019-05-15T00:47:18.854Z,1.77
2019-05-15T00:49:48.762Z,2.20
2019-05-15T00:52:18.305Z,1.95
2019-05-15T00:54:48.451Z,2.05
2019-05-15T00:57:19.214Z,2.05
2019-05-15T00:59:48.957Z,1.60
2019-05-15T01:02:18.258Z,2.17
2019-05-15T01:04:47.983Z,1.80
2019-05-15T01:07:18.826Z,1.87
2019-05-15T01:09:48.706Z,1.92
2019-05-15T01:12:18.599Z,1.95
2019-05-15T01:14:48.934Z,1.42
2019-05-15T01:17:18.564Z,2.17
2019-05-15T01:19:48.345Z,1.90
2019-05-15T01:22:19.475Z,1.70
2019-05-15T01:24:48.934Z,1.77
2019-05-15T01:27:18.603Z,2.00
2019-05-15T01:29:49.293Z,1.80
2019-05-15T01:32:19.284Z,2.15
2019-05-15T01:34:49.184Z,1.75
2019-05-15T01:37:18.964Z,1.85
2019-05-15T01:39:48.626Z,1.50
2019-05-15T01:42:18.647Z,1.87
2019-05-15T01:44:48.542Z,1.82
2019-05-15T01:47:19.035Z,1.60
2019-05-15T01:49:49.055Z,1.70
2019-05-15T01:52:19.018Z,1.40
2019-05-15T01:54:48.892Z,1.65
2019-05-15T01:57:18.746Z,1.95
2019-05-15T01:59:57.162Z,1.70
2019-05-15T02:02:18.997Z,1.37
2019-05-15T02:04:48.806Z,2.10
2019-05-15T02:07:18.716Z,1.80
2019-05-15T02:09:49.177Z,1.57
2019-05-15T02:12:19.141Z,1.47
2019-05-15T02:14:48.704Z,1.27
2019-05-15T02:17:19.104Z,1.55
2019-05-15T02:19:49.450Z,2.17
2019-05-15T02:22:19.042Z,1.50
2019-05-15T02:24:48.385Z,1.62
2019-05-15T02:27:18.697Z,1.62
2019-05-15T02:29:49.323Z,1.77
2019-05-15T02:32:19.456Z,1.75
2019-05-15T02:34:49.978Z,1.60
2019-05-15T02:37:19.616Z,1.45
2019-05-15T02:39:49.735Z,1.98
2019-05-15T02:42:19.512Z,1.70
2019-05-15T02:44:50.038Z,1.60
2019-05-15T02:47:20.954Z,1.62
2019-05-15T02:49:50.253Z,1.50
2019-05-15T02:52:20.197Z,1.60
2019-05-15T02:54:49.991Z,1.67
2019-05-15T02:57:19.400Z,1.32
2019-05-15T02:59:49.837Z,1.82
2019-05-15T03:02:19.462Z,1.20
2019-05-15T03:04:49.252Z,1.75
2019-05-15T03:07:19.409Z,1.40
2019-05-15T03:09:49.735Z,1.50
2019-05-15T03:12:19.727Z,1.72
2019-05-15T03:14:49.614Z,1.45
2019-05-15T03:17:19.153Z,2.02
2019-05-15T03:19:49.841Z,1.65
2019-05-15T03:22:19.622Z,1.55
2019-05-15T03:24:50.212Z,1.77
2019-05-15T03:27:20.993Z,1.52
2019-05-15T03:29:50.294Z,1.70
2019-05-15T03:32:32.819Z,1.35
2019-05-15T03:34:56.398Z,1.60
2019-05-15T03:37:23.281Z,1.42
2019-05-15T03:39:52.723Z,1.37
2019-05-15T03:42:22.132Z,1.50
2019-05-15T03:44:51.416Z,1.60
2019-05-15T03:47:20.981Z,1.30
2019-05-15T03:49:50.415Z,1.15
2019-05-15T03:52:19.763Z,2.02
2019-05-15T03:54:49.693Z,2.00
2019-05-15T03:57:22.842Z,1.80
2019-05-15T03:59:50.086Z,1.50
2019-05-15T04:02:19.806Z,1.50
2019-05-15T04:04:50.085Z,1.92
2019-05-15T04:07:19.779Z,1.70
2019-05-15T04:09:49.589Z,1.70
2019-05-15T04:12:19.686Z,1.98
2019-05-15T04:14:49.994Z,2.10
2019-05-15T04:17:19.945Z,1.15
2019-05-15T04:19:49.794Z,2.67
2019-05-15T04:22:19.921Z,1.92
2019-05-15T04:24:51.215Z,2.08
2019-05-15T04:27:21.936Z,1.70
2019-05-15T04:29:51.491Z,1.72
2019-05-15T04:32:20.802Z,1.55
2019-05-15T04:34:50.087Z,1.70
2019-05-15T04:37:19.356Z,2.20
2019-05-15T04:39:49.206Z,1.60
2019-05-15T04:42:20.196Z,1.70
2019-05-15T04:44:49.969Z,1.92
2019-05-15T04:47:20.572Z,1.60
2019-05-15T04:49:50.552Z,1.50
2019-05-15T04:52:21.618Z,1.67
2019-05-15T04:54:51.240Z,1.60
2019-05-15T04:57:20.519Z,1.17
2019-05-15T04:59:49.891Z,1.30
2019-05-15T05:02:26.662Z,1.92
2019-05-15T05:04:50.194Z,1.42
2019-05-15T05:07:19.550Z,2.17
2019-05-15T05:09:49.058Z,1.47
2019-05-15T05:12:19.299Z,1.57
2019-05-15T05:14:48.940Z,1.55
2019-05-15T05:17:19.583Z,1.70
2019-05-15T05:19:51.353Z,1.50
2019-05-15T05:22:20.165Z,1.60
2019-05-15T05:24:49.919Z,1.40
2019-05-15T05:27:19.536Z,1.90
2019-05-15T05:29:48.809Z,1.55
2019-05-15T05:32:30.934Z,1.90
2019-05-15T05:34:49.078Z,1.95
2019-05-15T05:37:18.671Z,1.30
2019-05-15T05:39:49.047Z,1.20
2019-05-15T05:42:18.572Z,1.63
2019-05-15T05:44:48.878Z,1.27
2019-05-15T05:47:18.385Z,1.50
2019-05-15T05:49:48.962Z,1.40
2019-05-15T05:52:18.676Z,1.00
2019-05-15T05:54:49.152Z,1.60
2019-05-15T05:57:19.418Z,1.23
2019-05-15T05:59:49.116Z,1.17
2019-05-15T06:02:18.774Z,3.37
2019-05-15T06:04:48.062Z,1.40
2019-05-15T06:07:18.488Z,1.43
2019-05-15T06:09:49.138Z,1.40
2019-05-15T06:12:19.745Z,1.40
2019-05-15T06:14:49.012Z,2.20
2019-05-15T06:17:19.023Z,1.70
2019-05-15T06:19:48.747Z,1.63
2019-05-15T06:22:18.837Z,1.67
2019-05-15T06:24:48.584Z,1.60
2019-05-15T06:27:19.987Z,1.33
2019-05-15T06:29:48.940Z,1.63
2019-05-15T06:32:19.438Z,1.57
2019-05-15T06:34:50.122Z,1.17
2019-05-15T06:37:19.794Z,1.23
2019-05-15T06:39:49.177Z,1.20
2019-05-15T06:42:18.964Z,1.37
2019-05-15T06:44:49.340Z,1.07
2019-05-15T06:47:18.966Z,1.30
2019-05-15T06:49:48.731Z,1.10
2019-05-15T06:52:18.207Z,1.07
2019-05-15T06:54:48.522Z,1.00
2019-05-15T06:57:18.381Z,1.07
2019-05-15T06:59:48.443Z,1.00
2019-05-15T07:02:19.089Z,1.10
2019-05-15T07:04:48.901Z,0.70
2019-05-15T07:07:18.396Z,1.03
2019-05-15T07:09:48.662Z,0.80
2019-05-15T07:12:18.667Z,1.00
2019-05-15T07:14:48.718Z,1.00
2019-05-15T07:17:18.460Z,0.90
2019-05-15T07:19:48.533Z,1.13
2019-05-15T07:22:18.348Z,0.70
2019-05-15T07:24:47.893Z,1.10
2019-05-15T07:27:18.410Z,0.60
2019-05-15T07:29:48.751Z,0.87
2019-05-15T07:32:19.205Z,0.87
2019-05-15T07:34:49.708Z,0.77
2019-05-15T07:37:19.183Z,0.70
2019-05-15T07:39:48.921Z,0.60
2019-05-15T07:42:18.615Z,1.20
2019-05-15T07:44:48.321Z,0.87
2019-05-15T07:47:19.123Z,0.80
2019-05-15T07:49:49.179Z,0.70
2019-05-15T07:52:19.367Z,0.83
2019-05-15T07:54:48.960Z,0.60
2019-05-15T07:57:19.323Z,0.83
2019-05-15T07:59:49.062Z,0.90
2019-05-15T08:02:19.088Z,0.80
2019-05-15T08:04:48.629Z,0.73
2019-05-15T08:07:18.496Z,0.60
2019-05-15T08:09:48.603Z,1.03
2019-05-15T08:12:19.286Z,0.80
2019-05-15T08:14:50.872Z,0.90
2019-05-15T08:17:21.962Z,1.10
2019-05-15T08:19:51.837Z,1.13
2019-05-15T08:22:21.113Z,0.57
2019-05-15T08:24:50.713Z,0.87
2019-05-15T08:27:23.547Z,0.87
2019-05-15T08:29:51.535Z,1.00
2019-05-15T08:32:20.822Z,0.90
2019-05-15T08:34:50.458Z,0.73
2019-05-15T08:37:19.762Z,0.70
2019-05-15T08:39:49.364Z,0.77
2019-05-15T08:42:19.079Z,1.07
2019-05-15T08:44:48.910Z,0.73
2019-05-15T08:47:19.334Z,0.80
2019-05-15T08:49:49.011Z,0.87
2019-05-15T08:52:18.934Z,0.70
2019-05-15T08:54:48.747Z,0.90
2019-05-15T08:57:20.313Z,0.90
2019-05-15T08:59:49.194Z,0.60
2019-05-15T09:02:18.712Z,1.10
2019-05-15T09:04:48.709Z,0.73
2019-05-15T09:07:19.303Z,1.07
2019-05-15T09:09:48.853Z,0.53
2019-05-15T09:12:18.853Z,1.00
2019-05-15T09:14:48.832Z,1.27
2019-05-15T09:17:18.290Z,1.27
2019-05-15T09:19:48.187Z,1.10
2019-05-15T09:22:18.771Z,0.90
2019-05-15T09:24:49.012Z,1.30
2019-05-15T09:27:18.784Z,0.77
2019-05-15T09:29:48.565Z,1.00
2019-05-15T09:32:19.176Z,1.27
2019-05-15T09:34:54.822Z,1.10
2019-05-15T09:37:19.687Z,0.90
2019-05-15T09:39:49.143Z,1.20
2019-05-15T09:42:19.304Z,0.87
2019-05-15T09:44:48.719Z,0.93
2019-05-15T09:47:18.809Z,1.03
2019-05-15T09:49:48.615Z,0.97
2019-05-15T09:52:22.171Z,1.10
2019-05-15T09:54:49.434Z,1.13
2019-05-15T09:57:18.978Z,0.90
2019-05-15T09:59:48.922Z,0.90
2019-05-15T10:02:19.151Z,1.13
2019-05-15T10:05:04.161Z,1.00
2019-05-15T10:07:20.738Z,0.90
2019-05-15T10:09:52.345Z,0.87
2019-05-15T10:12:20.989Z,1.30
2019-05-15T10:14:50.545Z,1.00
2019-05-15T10:17:20.139Z,1.00
2019-05-15T10:19:49.753Z,1.03
2019-05-15T10:22:20.169Z,1.20
2019-05-15T10:24:50.959Z,0.93
2019-05-15T10:27:20.538Z,0.87
2019-05-15T10:29:49.818Z,1.03
2019-05-15T10:32:19.624Z,1.03
2019-05-15T10:34:48.945Z,1.00
2019-05-15T10:37:18.652Z,1.10
2019-05-15T10:39:52.141Z,1.00
2019-05-15T10:42:19.504Z,0.90
2019-05-15T10:44:48.944Z,1.10
2019-05-15T10:47:18.238Z,0.90
2019-05-15T10:49:48.467Z,0.80
2019-05-15T10:52:18.219Z,0.90
2019-05-15T10:54:47.528Z,0.70
2019-05-15T10:57:18.909Z,1.00
2019-05-15T10:59:48.597Z,0.57
2019-05-15T11:02:19.211Z,0.50
2019-05-15T11:04:48.994Z,0.70
2019-05-15T11:07:19.451Z,0.60
2019-05-15T11:09:50.423Z,1.20
2019-05-15T11:12:19.714Z,0.90
2019-05-15T11:14:49.316Z,0.73
2019-05-15T11:17:19.053Z,1.00
2019-05-15T11:19:49.822Z,0.67
2019-05-15T11:22:19.422Z,0.90
2019-05-15T11:24:52.294Z,0.80
2019-05-15T11:27:19.717Z,0.80
2019-05-15T11:29:49.001Z,0.80
2019-05-15T11:32:18.734Z,0.70
2019-05-15T11:34:49.254Z,1.10
2019-05-15T11:37:19.036Z,0.67
2019-05-15T11:39:48.854Z,0.70
2019-05-15T11:42:20.312Z,0.70
2019-05-15T11:44:53.205Z,0.70
2019-05-15T11:47:21.523Z,0.67
2019-05-15T11:49:50.790Z,1.20
2019-05-15T11:52:20.073Z,0.90
2019-05-15T11:54:49.659Z,0.97
2019-05-15T11:57:20.113Z,1.10
2019-05-15T11:59:55.403Z,1.20
2019-05-15T12:02:20.756Z,1.00
2019-05-15T12:04:50.109Z,1.00
2019-05-15T12:07:19.388Z,0.80
2019-05-15T12:09:48.995Z,0.80
2019-05-15T12:12:18.279Z,1.00
2019-05-15T12:14:49.422Z,1.00
2019-05-15T12:17:19.358Z,1.20
2019-05-15T12:19:54.920Z,0.70
2019-05-15T12:22:19.621Z,0.80
2019-05-15T12:24:50.168Z,0.80
2019-05-15T12:27:19.647Z,0.97
2019-05-15T12:29:49.413Z,1.40
2019-05-15T12:34:50.090Z,0.90
2019-05-15T12:37:19.860Z,1.07
2019-05-15T12:39:23.745Z,0.83
2019-05-15T12:59:59.427Z,2.80
2019-05-15T13:02:28.705Z,1.13
2019-05-15T13:04:57.985Z,1.10
2019-05-15T13:07:28.540Z,1.07
2019-05-15T13:09:58.087Z,0.83
2019-05-15T13:12:28.838Z,0.87
2019-05-15T13:14:59.043Z,0.90
2019-05-15T13:17:29.505Z,1.37
2019-05-15T13:19:58.846Z,1.00
2019-05-15T13:22:28.959Z,0.87
2019-05-15T13:24:58.838Z,1.20
2019-05-15T13:27:28.383Z,1.10
2019-05-15T13:29:58.347Z,0.97
2019-05-15T13:32:28.460Z,0.97
2019-05-15T13:34:59.439Z,0.80
2019-05-15T13:37:30.908Z,1.27
2019-05-15T13:40:01.777Z,0.90
2019-05-15T13:42:31.322Z,1.00
2019-05-15T13:45:00.608Z,1.10
2019-05-15T13:47:29.897Z,1.00
2019-05-15T13:49:59.433Z,1.20
2019-05-15T13:52:28.731Z,1.10
2019-05-15T13:54:58.001Z,1.00
2019-05-15T13:57:29.661Z,1.00
2019-05-15T13:59:58.931Z,1.23
2019-05-15T14:02:28.704Z,1.00
2019-05-15T14:04:58.409Z,0.80
2019-05-15T14:07:33.116Z,0.90
2019-05-15T14:09:59.919Z,1.20
2019-05-15T14:12:29.325Z,0.97
2019-05-15T14:14:58.891Z,1.07
2019-05-15T14:17:28.364Z,1.10
2019-05-15T14:19:58.718Z,1.23
2019-05-15T14:22:28.334Z,1.07
2019-05-15T14:24:58.376Z,0.90
2019-05-15T14:27:28.981Z,0.90
2019-05-15T14:29:59.205Z,0.93
2019-05-15T14:32:37.730Z,1.00
2019-05-15T14:34:59.529Z,0.97
2019-05-15T14:37:29.154Z,1.10
2019-05-15T14:39:58.426Z,0.93
2019-05-15T14:42:29.284Z,1.17
2019-05-15T14:44:59.323Z,1.13
2019-05-15T14:47:29.596Z,0.90
2019-05-15T14:50:00.097Z,1.40
2019-05-15T14:52:29.673Z,0.87
2019-05-15T14:54:59.266Z,1.17
2019-05-15T14:57:28.827Z,0.97
2019-05-15T14:59:58.391Z,0.90
2019-05-15T15:02:27.670Z,1.00
2019-05-15T15:04:59.443Z,1.17
2019-05-15T15:07:28.545Z,1.20
2019-05-15T15:09:58.274Z,3.00
2019-05-15T15:12:28.337Z,1.20
2019-05-15T15:14:57.940Z,1.47
2019-05-15T15:17:28.881Z,1.13
2019-05-15T15:20:00.229Z,0.90
2019-05-15T15:22:29.482Z,1.13
2019-05-15T15:24:59.844Z,0.90
2019-05-15T15:27:29.247Z,1.07
2019-05-15T15:29:58.531Z,1.17
2019-05-15T15:32:28.659Z,1.30
2019-05-15T15:34:58.679Z,1.43
2019-05-15T15:37:28.839Z,0.93
2019-05-15T15:39:58.790Z,0.90
2019-05-15T15:42:28.700Z,0.83
2019-05-15T15:44:58.230Z,1.40
2019-05-15T15:47:28.286Z,1.00
2019-05-15T15:49:58.469Z,0.93
2019-05-15T15:52:28.912Z,0.80
2019-05-15T15:54:58.434Z,0.90
2019-05-15T15:57:28.545Z,1.23
2019-05-15T15:59:58.061Z,1.50
2019-05-15T16:02:28.103Z,1.10
2019-05-15T16:04:58.942Z,1.07
2019-05-15T16:07:28.413Z,1.13
2019-05-15T16:09:58.884Z,0.73
2019-05-15T16:12:30.344Z,1.03
2019-05-15T16:14:59.649Z,0.80
2019-05-15T16:17:29.248Z,1.13
2019-05-15T16:19:58.875Z,1.47
2019-05-15T16:22:28.878Z,1.33
2019-05-15T16:24:58.781Z,1.10
2019-05-15T16:27:29.181Z,1.10
2019-05-15T16:29:58.835Z,1.30
2019-05-15T16:32:28.966Z,1.23
2019-05-15T16:34:58.740Z,1.47
2019-05-15T16:37:28.319Z,1.00
2019-05-15T16:40:00.042Z,0.97
2019-05-15T16:42:28.866Z,1.30
2019-05-15T16:44:59.296Z,0.83
2019-05-15T16:47:28.854Z,1.23
2019-05-15T16:49:58.458Z,1.83
2019-05-15T16:52:30.887Z,1.10
2019-05-15T16:54:59.515Z,1.17
2019-05-15T16:57:28.802Z,1.20
2019-05-15T16:59:58.738Z,1.00
2019-05-15T17:02:28.357Z,1.07
2019-05-15T17:04:57.750Z,1.27
2019-05-15T17:07:28.986Z,1.80
2019-05-15T17:09:58.696Z,1.03
2019-05-15T17:12:28.117Z,1.30
2019-05-15T17:14:58.459Z,1.13
2019-05-15T17:17:27.875Z,1.10
2019-05-15T17:19:57.972Z,1.03
2019-05-15T17:22:28.883Z,1.33
2019-05-15T17:24:58.446Z,1.60
2019-05-15T17:27:29.233Z,1.30
2019-05-15T17:29:58.850Z,1.23
2019-05-15T17:32:29.067Z,1.40
2019-05-15T17:34:59.599Z,1.30
2019-05-15T17:37:29.184Z,1.10
2019-05-15T17:39:59.020Z,1.03
2019-05-15T17:42:29.042Z,1.20
2019-05-15T17:44:58.382Z,1.40
2019-05-15T17:47:28.572Z,1.00
2019-05-15T17:49:58.846Z,1.23
2019-05-15T17:52:28.992Z,1.30
2019-05-15T17:54:59.241Z,1.33
2019-05-15T17:57:29.251Z,1.07
2019-05-15T17:59:59.103Z,1.30
2019-05-15T18:02:28.753Z,1.40
2019-05-15T18:04:59.513Z,1.07
2019-05-15T18:07:29.516Z,1.23
2019-05-15T18:09:59.214Z,1.57
2019-05-15T18:12:29.383Z,1.00
2019-05-15T18:14:59.063Z,1.10
2019-05-15T18:17:28.345Z,1.27
2019-05-15T18:19:58.061Z,0.90
2019-05-15T18:22:27.802Z,1.30
2019-05-15T18:24:58.102Z,1.00
2019-05-15T18:27:27.569Z,1.80
2019-05-15T18:29:58.435Z,1.27
2019-05-15T18:32:28.666Z,1.37
2019-05-15T18:34:59.362Z,1.00
2019-05-15T18:37:29.031Z,1.57
2019-05-15T18:40:05.337Z,1.37
2019-05-15T18:42:29.534Z,1.30
2019-05-15T18:44:58.820Z,1.20
2019-05-15T18:47:31.040Z,1.00
2019-05-15T18:50:06.084Z,1.13
2019-05-15T18:52:31.068Z,1.23
2019-05-15T18:55:00.675Z,1.60
2019-05-15T18:57:31.142Z,1.23
2019-05-15T19:00:00.915Z,1.10
2019-05-15T19:02:30.305Z,1.53
2019-05-15T19:04:59.579Z,0.97
2019-05-15T19:07:28.965Z,1.20
2019-05-15T19:09:58.240Z,1.93
2019-05-15T19:12:28.661Z,1.97
2019-05-15T19:14:58.695Z,1.70
2019-05-15T19:17:30.365Z,1.27
2019-05-15T19:19:59.514Z,1.73
2019-05-15T19:22:28.818Z,1.90
2019-05-15T19:24:58.733Z,1.30
2019-05-15T19:27:28.205Z,1.83
2019-05-15T19:29:59.078Z,1.40
2019-05-15T19:32:28.891Z,1.27
2019-05-15T19:34:58.844Z,1.13
2019-05-15T19:37:29.398Z,0.90
2019-05-15T19:39:59.055Z,1.43
2019-05-15T19:42:28.654Z,1.70
2019-05-15T19:44:58.969Z,1.57
2019-05-15T19:47:28.669Z,1.30
2019-05-15T19:49:58.187Z,1.60
2019-05-15T19:52:28.367Z,1.00
2019-05-15T19:54:58.027Z,1.33
2019-05-15T19:57:28.044Z,1.00
2019-05-15T19:59:58.155Z,0.97
2019-05-15T20:02:28.726Z,1.40
2019-05-15T20:04:59.343Z,1.30
2019-05-15T20:07:28.823Z,1.30
2019-05-15T20:09:58.522Z,1.60
2019-05-15T20:12:28.078Z,1.37
2019-05-15T20:14:58.379Z,1.40
2019-05-15T20:17:27.850Z,1.13
2019-05-15T20:19:58.130Z,1.50
2019-05-15T20:22:28.514Z,1.53
2019-05-15T20:24:58.823Z,1.70
2019-05-15T20:27:28.527Z,1.20
2019-05-15T20:29:57.877Z,1.23
2019-05-15T20:32:27.861Z,1.33
2019-05-15T20:34:57.849Z,1.40
2019-05-15T20:37:28.884Z,1.10
2019-05-15T20:39:59.573Z,1.20
2019-05-15T20:42:29.121Z,1.33
2019-05-15T20:44:58.677Z,1.73
2019-05-15T20:47:28.155Z,1.50
2019-05-15T20:49:57.601Z,1.50
2019-05-15T20:52:28.561Z,1.40
2019-05-15T20:54:59.360Z,1.40
2019-05-15T20:57:28.821Z,1.37
2019-05-15T20:59:58.766Z,1.10
2019-05-15T21:02:28.977Z,1.60
2019-05-15T21:05:00.763Z,1.37
2019-05-15T21:07:38.671Z,1.27
2019-05-15T21:10:00.860Z,1.53
2019-05-15T21:12:30.218Z,1.77
2019-05-15T21:14:59.777Z,1.57
2019-05-15T21:17:29.050Z,1.60
2019-05-15T21:20:01.091Z,1.60
2019-05-15T21:22:29.739Z,1.40
2019-05-15T21:24:59.148Z,1.40
2019-05-15T21:27:32.534Z,1.23
2019-05-15T21:29:59.701Z,1.00
2019-05-15T21:32:29.250Z,1.40
2019-05-15T21:34:58.526Z,1.30
2019-05-15T21:37:30.426Z,1.63
2019-05-15T21:39:59.378Z,1.60
2019-05-15T21:42:28.661Z,1.60
2019-05-15T21:44:58.264Z,1.00
2019-05-15T21:47:28.130Z,1.00
2019-05-15T21:49:57.509Z,1.80
2019-05-15T21:52:28.897Z,1.10
2019-05-15T21:54:59.433Z,1.40
2019-05-15T21:57:35.954Z,1.27
2019-05-15T22:00:00.725Z,1.30
2019-05-15T22:02:30.537Z,1.47
2019-05-15T22:05:00.066Z,1.47
2019-05-15T22:07:29.528Z,1.70
2019-05-15T22:09:58.789Z,1.70
2019-05-15T22:12:28.600Z,1.70
2019-05-15T22:14:58.395Z,1.83
2019-05-15T22:17:29.306Z,1.43
2019-05-15T22:19:59.061Z,1.43
2019-05-15T22:22:28.570Z,1.83
2019-05-15T22:24:58.268Z,1.80
2019-05-15T22:27:28.948Z,1.40
2019-05-15T22:29:58.854Z,1.90
2019-05-15T22:32:29.128Z,1.30
2019-05-15T22:35:07.038Z,1.53
2019-05-15T22:37:29.994Z,1.53
2019-05-15T22:40:00.828Z,1.80
2019-05-15T22:42:31.763Z,1.40
2019-05-15T22:45:01.242Z,1.83
2019-05-15T22:47:30.519Z,1.47
2019-05-15T22:50:00.181Z,1.53
2019-05-15T22:52:29.541Z,1.70
2019-05-15T22:54:58.824Z,1.57
2019-05-15T22:57:28.144Z,1.67
2019-05-15T22:59:58.139Z,2.27
2019-05-15T23:02:27.690Z,1.93
2019-05-15T23:04:57.223Z,1.70
2019-05-15T23:07:28.151Z,1.77
2019-05-15T23:09:58.315Z,2.10
2019-05-15T23:12:28.728Z,1.57
2019-05-15T23:14:58.137Z,1.80
2019-05-15T23:17:28.634Z,1.53
2019-05-15T23:19:58.266Z,1.90
2019-05-15T23:22:28.055Z,1.67
2019-05-15T23:24:58.582Z,1.67
2019-05-15T23:27:28.734Z,1.87
2019-05-15T23:29:58.516Z,1.57
2019-05-15T23:32:28.880Z,1.87
2019-05-15T23:34:58.571Z,1.87
2019-05-15T23:37:28.118Z,1.80
2019-05-15T23:39:57.976Z,1.60
2019-05-15T23:42:29.267Z,2.00
2019-05-15T23:44:59.133Z,1.87
2019-05-15T23:47:28.668Z,1.80
2019-05-15T23:49:58.067Z,1.83
2019-05-15T23:52:27.649Z,1.50
2019-05-15T23:54:58.855Z,1.97
2019-05-15T23:57:28.653Z,2.07
2019-05-15T23:59:58.057Z,1.97
